Time;durP1;ratioP1;P1;durP2;ratioP2;P2;SDS_P1;SDS_P2;PMS_P1;PMS_P2;Temp;Humidity;BMP_temperature;BMP_pressure;BME280_temperature;BME280_humidity;BME280_pressure;Samples;Min_cycle;Max_cycle;Signal;HPM_P1;HPM_P2
2021/11/24 00:01:15;;;;;;;21.38;11.38;;;-1.90;99.90;;;;;;5032673;28;20029;-60
2021/11/24 00:03:40;;;;;;;18.80;11.45;;;-2.60;99.90;;;;;;5028581;28;20033;-60
2021/11/24 00:06:06;;;;;;;20.55;11.38;;;-1.60;99.90;;;;;;5033631;28;20108;-59
2021/11/24 00:08:31;;;;;;;18.85;10.88;;;-1.80;99.90;;;;;;5031088;28;20060;-60
2021/11/24 00:10:57;;;;;;;19.42;10.68;;;-2.40;99.90;;;;;;5031540;28;20095;-60
2021/11/24 00:13:23;;;;;;;18.80;10.15;;;-2.00;99.90;;;;;;5031975;28;20025;-60
2021/11/24 00:15:48;;;;;;;21.10;10.90;;;-2.20;99.90;;;;;;5029775;28;20030;-60
2021/11/24 00:18:14;;;;;;;20.75;10.60;;;-1.70;99.90;;;;;;5032304;28;20029;-59
2021/11/24 00:20:40;;;;;;;15.70;10.20;;;-2.50;99.90;;;;;;5032560;28;20065;-60
2021/11/24 00:23:06;;;;;;;16.00;10.60;;;;;;;;;;5029430;28;20034;-59
2021/11/24 00:25:32;;;;;;;19.63;10.65;;;;;;;;;;5031362;28;20068;-60
2021/11/24 00:27:58;;;;;;;16.02;10.30;;;-2.20;99.90;;;;;;5029414;28;20030;-61
2021/11/24 00:30:24;;;;;;;16.73;11.18;;;;;;;;;;5032346;28;20017;-59
2021/11/24 00:32:50;;;;;;;17.02;9.98;;;-2.30;99.90;;;;;;5032290;28;20558;-61
2021/11/24 00:35:16;;;;;;;20.60;10.38;;;-2.60;99.90;;;;;;5028794;28;20028;-61
2021/11/24 00:37:42;;;;;;;15.98;10.45;;;-2.50;99.90;;;;;;5031812;28;20026;-61
2021/11/24 00:40:08;;;;;;;19.83;11.10;;;-2.40;99.90;;;;;;5032229;28;20029;-60
2021/11/24 00:42:34;;;;;;;21.63;11.73;;;-2.10;99.90;;;;;;5028702;28;20041;-61
2021/11/24 00:45:00;;;;;;;19.00;11.20;;;;;;;;;;5031116;28;20025;-61
2021/11/24 00:47:26;;;;;;;19.52;11.20;;;;;;;;;;5028203;28;20105;-60
2021/11/24 00:49:52;;;;;;;20.13;12.30;;;;;;;;;;5033063;28;20062;-61
2021/11/24 00:52:18;;;;;;;19.60;11.98;;;-2.40;99.90;;;;;;5031828;28;20057;-60
2021/11/24 00:54:44;;;;;;;23.00;12.50;;;-2.40;99.90;;;;;;5031094;28;20065;-61
2021/11/24 00:57:09;;;;;;;23.25;13.23;;;-1.90;99.90;;;;;;5033194;28;20434;-60
2021/11/24 00:59:35;;;;;;;20.65;10.70;;;-2.30;99.90;;;;;;5032127;28;20028;-61
2021/11/24 01:02:01;;;;;;;24.30;12.50;;;-2.30;99.90;;;;;;5028823;28;20407;-61
2021/11/24 01:04:26;;;;;;;21.35;12.98;;;-1.90;99.90;;;;;;5042777;28;20022;-62
2021/11/24 01:06:52;;;;;;;24.42;13.80;;;-2.10;99.90;;;;;;5042471;28;20026;-60
2021/11/24 01:09:18;;;;;;;23.95;13.00;;;-2.40;99.90;;;;;;5033285;28;20084;-59
2021/11/24 01:11:44;;;;;;;27.42;13.50;;;-2.30;99.90;;;;;;5031590;28;20067;-61
2021/11/24 01:14:09;;;;;;;21.25;12.73;;;-2.80;99.90;;;;;;5028965;28;20036;-61
2021/11/24 01:16:35;;;;;;;25.17;13.07;;;-2.20;99.90;;;;;;5031154;28;20503;-61
2021/11/24 01:19:01;;;;;;;22.95;13.20;;;;;;;;;;5033205;28;20447;-59
2021/11/24 01:21:27;;;;;;;26.92;13.55;;;-1.90;99.90;;;;;;5031186;28;20044;-60
2021/11/24 01:23:53;;;;;;;21.95;13.35;;;-1.80;99.90;;;;;;5029406;28;20026;-60
2021/11/24 01:26:19;;;;;;;20.80;13.82;;;-2.50;99.90;;;;;;5030800;28;20025;-61
2021/11/24 01:28:45;;;;;;;25.23;14.38;;;-2.20;99.90;;;;;;5032612;28;20502;-61
2021/11/24 01:31:10;;;;;;;26.23;13.60;;;-2.40;99.90;;;;;;5025027;28;20041;-61
2021/11/24 01:33:36;;;;;;;26.73;14.88;;;-2.70;99.90;;;;;;5027292;28;20388;-60
2021/11/24 01:36:03;;;;;;;23.85;12.80;;;-2.50;99.90;;;;;;5029684;28;20040;-60
2021/11/24 01:38:29;;;;;;;24.73;13.13;;;-2.40;99.90;;;;;;5032409;28;20439;-59
2021/11/24 01:40:55;;;;;;;20.92;12.82;;;-2.30;99.90;;;;;;5029728;28;20026;-58
2021/11/24 01:43:20;;;;;;;23.67;12.95;;;-2.40;99.90;;;;;;5029969;28;20506;-59
2021/11/24 01:45:46;;;;;;;20.70;11.93;;;-2.30;99.90;;;;;;5029715;28;20124;-60
2021/11/24 01:48:12;;;;;;;19.58;12.05;;;-2.60;99.90;;;;;;5030115;28;20068;-61
2021/11/24 01:50:38;;;;;;;18.45;11.63;;;;;;;;;;5033853;28;20025;-61
2021/11/24 01:53:04;;;;;;;21.40;11.55;;;-2.80;99.90;;;;;;5028276;28;20048;-58
2021/11/24 01:55:31;;;;;;;20.42;12.30;;;-2.80;99.90;;;;;;5030298;28;20369;-60
2021/11/24 01:57:57;;;;;;;24.17;12.77;;;-2.10;99.90;;;;;;5030224;28;20026;-60
2021/11/24 02:00:29;;;;;;;19.73;11.85;;;-2.80;99.90;;;;;;5022891;28;20025;-61
2021/11/24 02:02:55;;;;;;;22.55;12.95;;;-3.00;99.90;;;;;;5030923;28;20151;-59
2021/11/24 02:05:21;;;;;;;20.40;12.32;;;-2.80;99.90;;;;;;5025456;28;20136;-61
2021/11/24 02:07:48;;;;;;;18.48;10.65;;;-3.00;99.90;;;;;;5022101;28;20083;-58
2021/11/24 02:10:14;;;;;;;21.58;12.18;;;-2.50;99.90;;;;;;5031193;28;20064;-60
2021/11/24 02:12:40;;;;;;;19.92;11.75;;;-3.00;99.90;;;;;;5029801;28;20037;-60
2021/11/24 02:15:08;;;;;;;21.25;12.70;;;-2.70;99.90;;;;;;5030215;28;20048;-61
2021/11/24 02:17:34;;;;;;;22.00;12.38;;;-2.70;99.90;;;;;;5026210;28;20094;-61
2021/11/24 02:20:00;;;;;;;19.23;11.38;;;-3.10;99.90;;;;;;5031084;28;20563;-59
2021/11/24 02:22:25;;;;;;;21.40;11.32;;;-2.80;99.90;;;;;;5030209;28;20029;-60
2021/11/24 02:24:51;;;;;;;23.85;11.98;;;-2.60;99.90;;;;;;5026609;28;20164;-59
2021/11/24 02:27:17;;;;;;;21.00;11.48;;;-2.60;99.90;;;;;;5029965;28;20387;-60
2021/11/24 02:29:46;;;;;;;19.88;12.38;;;-2.60;99.90;;;;;;5025857;28;20500;-60
2021/11/24 02:32:15;;;;;;;20.30;12.43;;;-3.60;99.90;;;;;;5030896;28;20395;-60
2021/11/24 02:34:41;;;;;;;17.83;10.73;;;-3.00;99.90;;;;;;5030383;28;20033;-61
2021/11/24 02:37:06;;;;;;;21.30;12.00;;;-2.30;99.90;;;;;;5025972;28;20030;-60
2021/11/24 02:39:32;;;;;;;20.70;12.07;;;-2.70;99.90;;;;;;5031578;28;20067;-59
2021/11/24 02:41:59;;;;;;;20.15;11.65;;;-2.70;99.90;;;;;;5027820;28;20022;-61
2021/11/24 02:44:35;;;;;;;22.23;12.30;;;-2.60;99.90;;;;;;5029002;28;20037;-61
2021/11/24 02:47:12;;;;;;;21.52;12.70;;;-2.90;99.90;;;;;;5030319;28;20022;-61
2021/11/24 02:49:41;;;;;;;20.60;11.85;;;-2.90;99.90;;;;;;5026268;28;20519;-61
2021/11/24 02:52:07;;;;;;;26.70;13.18;;;-2.80;99.90;;;;;;5029812;28;20053;-60
2021/11/24 02:54:33;;;;;;;22.05;13.45;;;-2.60;99.90;;;;;;5026438;28;20036;-60
2021/11/24 02:57:00;;;;;;;21.25;13.05;;;-2.40;99.90;;;;;;5028186;28;20026;-59
2021/11/24 02:59:26;;;;;;;22.17;12.68;;;-2.90;99.90;;;;;;5030624;28;20513;-59
2021/11/24 03:01:52;;;;;;;20.90;13.30;;;-3.20;99.90;;;;;;5025621;28;20033;-60
2021/11/24 03:04:18;;;;;;;23.58;14.27;;;;;;;;;;5029232;28;20509;-61
2021/11/24 03:06:43;;;;;;;20.42;11.82;;;-2.80;99.90;;;;;;5030820;28;20076;-59
2021/11/24 03:09:09;;;;;;;20.63;12.20;;;-3.10;99.90;;;;;;5028757;28;20017;-60
2021/11/24 03:11:35;;;;;;;23.27;12.73;;;-2.90;99.90;;;;;;5029677;28;20025;-61
2021/11/24 03:14:00;;;;;;;17.52;12.20;;;-2.50;99.90;;;;;;5027077;28;20041;-58
2021/11/24 03:16:26;;;;;;;23.45;13.88;;;-2.70;99.90;;;;;;5028653;28;20029;-60
2021/11/24 03:18:52;;;;;;;25.00;14.13;;;;;;;;;;5029541;28;20079;-58
2021/11/24 03:21:19;;;;;;;25.27;13.85;;;-2.70;99.90;;;;;;5026780;28;20037;-59
2021/11/24 03:23:44;;;;;;;25.27;14.02;;;-2.60;99.90;;;;;;5029416;28;20025;-59
2021/11/24 03:26:11;;;;;;;22.70;13.43;;;;;;;;;;5028841;28;20037;-60
2021/11/24 03:28:36;;;;;;;22.80;13.32;;;-2.60;99.90;;;;;;5027057;28;20379;-59
2021/11/24 03:31:02;;;;;;;21.85;12.43;;;-2.80;99.90;;;;;;5029523;28;20028;-61
2021/11/24 03:33:28;;;;;;;19.13;12.15;;;-2.20;99.90;;;;;;5031010;28;20061;-60
2021/11/24 03:35:53;;;;;;;17.20;11.25;;;-2.00;99.90;;;;;;5031276;28;20092;-60
2021/11/24 03:38:19;;;;;;;22.50;11.55;;;-2.20;99.90;;;;;;5033319;28;20434;-58
2021/11/24 03:40:45;;;;;;;21.20;12.20;;;;;;;;;;5033543;28;20712;-60
2021/11/24 03:43:11;;;;;;;17.65;11.52;;;-2.00;99.90;;;;;;5032849;28;20029;-58
2021/11/24 03:45:37;;;;;;;22.48;12.18;;;-2.60;99.90;;;;;;5017025;28;20080;-60
2021/11/24 03:48:05;;;;;;;22.48;12.15;;;-2.50;99.90;;;;;;5031065;28;20079;-60
2021/11/24 03:50:32;;;;;;;18.15;11.35;;;-1.80;99.90;;;;;;5032614;28;20049;-60
2021/11/24 03:52:58;;;;;;;22.27;12.63;;;-2.40;99.90;;;;;;5032159;28;20064;-60
2021/11/24 03:55:24;;;;;;;20.90;13.23;;;-2.00;99.90;;;;;;5030624;28;20053;-59
2021/11/24 03:57:51;;;;;;;20.30;12.95;;;-2.20;99.90;;;;;;5032856;28;20029;-60
2021/11/24 04:00:21;;;;;;;20.35;12.15;;;-1.90;99.90;;;;;;5013102;28;20121;-59
2021/11/24 04:02:47;;;;;;;19.95;11.85;;;-2.30;99.90;;;;;;5014579;28;20029;-58
2021/11/24 04:05:14;;;;;;;18.83;12.45;;;-2.00;99.90;;;;;;5025738;28;20061;-60
2021/11/24 04:07:40;;;;;;;24.25;12.20;;;;;;;;;;5028327;28;20067;-59
2021/11/24 04:10:07;;;;;;;19.95;12.43;;;-2.50;99.90;;;;;;5033994;28;20051;-60
2021/11/24 04:12:33;;;;;;;21.45;12.95;;;-1.90;99.90;;;;;;5030152;28;20079;-60
2021/11/24 04:14:59;;;;;;;19.13;11.60;;;-2.30;99.90;;;;;;5030298;28;20506;-60
2021/11/24 04:17:25;;;;;;;17.42;11.77;;;-2.10;99.90;;;;;;5034044;28;20034;-61
2021/11/24 04:19:51;;;;;;;20.80;11.77;;;-2.20;99.90;;;;;;5027783;28;20033;-61
2021/11/24 04:22:16;;;;;;;23.45;11.95;;;-2.10;99.90;;;;;;5023629;28;20044;-60
2021/11/24 04:24:42;;;;;;;25.63;12.75;;;-1.70;99.90;;;;;;5029937;28;20092;-60
2021/11/24 04:27:08;;;;;;;21.83;12.60;;;-1.30;99.90;;;;;;5030291;28;20025;-61
2021/11/24 04:29:34;;;;;;;23.45;13.20;;;-2.30;99.90;;;;;;5038133;28;20152;-61
2021/11/24 04:32:01;;;;;;;22.45;13.68;;;;;;;;;;5031392;28;20037;-58
2021/11/24 04:34:27;;;;;;;23.10;14.80;;;-2.20;99.90;;;;;;5030066;28;20021;-60
2021/11/24 04:36:53;;;;;;;25.75;13.88;;;-1.00;99.90;;;;;;5033037;28;20369;-58
2021/11/24 04:39:19;;;;;;;21.10;13.13;;;-2.60;99.90;;;;;;5027436;28;20025;-59
2021/11/24 04:41:44;;;;;;;22.05;13.13;;;-2.00;99.90;;;;;;5031422;28;20036;-59
2021/11/24 04:44:10;;;;;;;25.35;13.80;;;-2.20;99.90;;;;;;5032654;28;20034;-59
2021/11/24 04:46:36;;;;;;;21.02;12.80;;;-2.20;99.90;;;;;;5027047;28;20431;-59
2021/11/24 04:49:02;;;;;;;24.23;13.90;;;-1.80;99.90;;;;;;5031891;28;20056;-60
2021/11/24 04:51:27;;;;;;;24.17;14.25;;;-2.30;99.90;;;;;;5028069;28;20036;-56
2021/11/24 04:53:53;;;;;;;26.65;14.85;;;-1.80;99.90;;;;;;5028925;28;20030;-57
2021/11/24 04:56:19;;;;;;;23.63;14.10;;;-2.50;99.90;;;;;;5031076;28;20104;-60
2021/11/24 04:58:55;;;;;;;26.80;13.85;;;-2.30;99.90;;;;;;5036407;28;20041;-61
2021/11/24 05:01:22;;;;;;;22.65;14.50;;;-1.80;99.90;;;;;;5037483;28;20103;-57
2021/11/24 05:03:48;;;;;;;25.08;14.23;;;-2.00;99.90;;;;;;5031707;28;20025;-58
2021/11/24 05:06:14;;;;;;;24.92;14.00;;;-1.80;99.90;;;;;;5029315;28;20029;-60
2021/11/24 05:08:41;;;;;;;25.88;13.23;;;-1.50;99.90;;;;;;5033275;28;20057;-57
2021/11/24 05:11:08;;;;;;;21.45;13.65;;;-1.70;99.90;;;;;;5014772;28;20025;-57
2021/11/24 05:13:35;;;;;;;27.73;14.63;;;-2.00;99.90;;;;;;5027199;28;20025;-57
2021/11/24 05:16:03;;;;;;;25.85;13.65;;;-2.60;99.90;;;;;;5014489;28;20509;-58
2021/11/24 05:18:38;;;;;;;23.33;13.32;;;-2.00;99.90;;;;;;5028747;28;20029;-58
2021/11/24 05:21:11;;;;;;;26.33;14.25;;;-2.20;99.90;;;;;;5030804;28;20040;-60
2021/11/24 05:23:37;;;;;;;25.35;14.52;;;-2.20;99.90;;;;;;5031169;28;20543;-59
2021/11/24 05:26:05;;;;;;;25.13;13.93;;;-2.20;99.90;;;;;;5027693;28;20037;-60
2021/11/24 05:28:32;;;;;;;29.48;14.75;;;-2.20;99.90;;;;;;5022197;28;20029;-60
2021/11/24 05:30:58;;;;;;;30.75;15.02;;;-2.00;99.90;;;;;;5013994;28;20112;-59
2021/11/24 05:33:24;;;;;;;27.23;14.63;;;-2.30;99.90;;;;;;5023488;28;20025;-64
2021/11/24 05:35:50;;;;;;;26.05;16.05;;;;;;;;;;5022484;28;20061;-62
2021/11/24 05:38:16;;;;;;;28.17;15.75;;;-2.30;99.90;;;;;;5018206;28;20030;-62
2021/11/24 05:40:42;;;;;;;25.33;14.63;;;-2.10;99.90;;;;;;5024461;28;20055;-61
2021/11/24 05:43:07;;;;;;;27.27;15.30;;;-2.20;99.90;;;;;;5022536;28;20026;-63
2021/11/24 05:45:48;;;;;;;26.75;14.40;;;-2.10;99.90;;;;;;5028976;28;20109;-64
2021/11/24 05:48:14;;;;;;;26.40;15.13;;;-2.50;99.90;;;;;;5032676;28;20084;-62
2021/11/24 05:50:43;;;;;;;24.45;15.60;;;-2.70;99.90;;;;;;5031159;28;20048;-62
2021/11/24 05:53:09;;;;;;;25.85;13.88;;;-2.70;99.90;;;;;;5026350;28;20029;-60
2021/11/24 05:55:35;;;;;;;26.60;14.98;;;-2.70;99.90;;;;;;5029377;28;20060;-64
2021/11/24 05:58:01;;;;;;;24.55;15.73;;;-2.80;99.90;;;;;;5028460;28;20081;-63
2021/11/24 06:00:27;;;;;;;29.67;15.70;;;-2.20;99.90;;;;;;5030792;28;20120;-64
2021/11/24 06:02:53;;;;;;;27.83;15.75;;;-2.70;99.90;;;;;;5030560;28;20144;-63
2021/11/24 06:05:54;;;;;;;25.27;14.90;;;-2.50;99.90;;;;;;5019701;28;20433;-74
2021/11/24 06:08:19;;;;;;;24.63;15.73;;;-2.80;99.90;;;;;;4970356;28;20046;-75
2021/11/24 06:10:45;;;;;;;25.25;16.10;;;-2.50;99.90;;;;;;5018540;28;20032;-64
2021/11/24 06:13:11;;;;;;;30.02;15.55;;;-2.40;99.90;;;;;;5032121;28;20040;-65
2021/11/24 06:15:37;;;;;;;24.98;15.07;;;-2.20;99.90;;;;;;5029630;28;20026;-65
2021/11/24 06:18:03;;;;;;;23.92;14.25;;;-2.60;99.90;;;;;;5026383;28;20033;-65
2021/11/24 06:20:29;;;;;;;25.70;14.68;;;-2.20;99.90;;;;;;5031304;28;20025;-64
2021/11/24 06:22:55;;;;;;;24.50;14.80;;;-2.40;99.90;;;;;;5031299;28;20430;-67
2021/11/24 06:25:20;;;;;;;25.67;14.60;;;-2.20;99.90;;;;;;5025260;28;20045;-67
2021/11/24 06:27:46;;;;;;;26.38;14.25;;;-2.00;99.90;;;;;;5032689;28;20108;-65
2021/11/24 06:30:15;;;;;;;23.38;13.55;;;-2.10;99.90;;;;;;5024824;28;20030;-66
2021/11/24 06:32:41;;;;;;;24.08;13.65;;;-2.20;99.90;;;;;;5031283;28;20388;-67
2021/11/24 06:35:07;;;;;;;23.48;13.57;;;-1.80;99.90;;;;;;5029760;28;20030;-67
2021/11/24 06:37:33;;;;;;;25.90;13.25;;;-2.20;99.90;;;;;;5027872;28;20033;-66
2021/11/24 06:40:00;;;;;;;24.58;13.82;;;-1.50;99.90;;;;;;5030907;28;20395;-68
2021/11/24 06:42:26;;;;;;;24.88;14.18;;;-1.60;99.90;;;;;;5031540;28;20152;-66
2021/11/24 06:44:52;;;;;;;26.05;14.70;;;-1.90;99.90;;;;;;5031157;28;20682;-66
2021/11/24 06:47:17;;;;;;;21.38;13.93;;;-1.80;99.90;;;;;;5030586;28;20025;-68
2021/11/24 06:49:45;;;;;;;20.92;13.75;;;-1.70;99.90;;;;;;5026373;28;20376;-68
2021/11/24 06:52:11;;;;;;;22.85;14.07;;;-1.90;99.90;;;;;;5016544;28;20072;-65
2021/11/24 06:54:37;;;;;;;27.42;15.02;;;-1.80;99.90;;;;;;5034173;28;20435;-68
2021/11/24 06:57:02;;;;;;;25.65;14.52;;;-1.60;99.90;;;;;;5028837;28;20368;-68
2021/11/24 06:59:28;;;;;;;24.40;14.40;;;-2.10;99.90;;;;;;5030648;28;20085;-66
2021/11/24 07:01:54;;;;;;;25.38;14.07;;;-2.10;99.90;;;;;;5028962;28;20025;-65
2021/11/24 07:04:20;;;;;;;24.48;14.57;;;-1.90;99.90;;;;;;5029950;28;20033;-66
2021/11/24 07:06:46;;;;;;;25.08;13.82;;;-2.30;99.90;;;;;;5031263;28;20082;-63
2021/11/24 07:09:13;;;;;;;20.50;12.48;;;-1.20;99.90;;;;;;5034554;28;20034;-67
2021/11/24 07:11:39;;;;;;;22.77;13.82;;;-2.30;99.90;;;;;;5034487;28;20116;-67
2021/11/24 07:14:06;;;;;;;25.38;14.88;;;-1.80;99.90;;;;;;5034468;28;20108;-62
2021/11/24 07:16:31;;;;;;;23.92;13.88;;;-1.80;99.90;;;;;;5020445;28;20058;-60
2021/11/24 07:18:57;;;;;;;23.88;13.55;;;-1.70;99.90;;;;;;5023441;28;20500;-60
2021/11/24 07:21:23;;;;;;;27.48;15.45;;;-1.50;99.90;;;;;;5024404;28;20075;-62
2021/11/24 07:23:48;;;;;;;35.13;19.63;;;-1.80;99.90;;;;;;5033967;28;20030;-61
2021/11/24 07:26:14;;;;;;;35.03;17.65;;;-1.80;99.90;;;;;;5018104;28;20357;-62
2021/11/24 07:28:40;;;;;;;31.90;16.45;;;-1.50;99.90;;;;;;5035237;28;20034;-63
2021/11/24 07:31:05;;;;;;;29.60;16.33;;;-1.90;99.90;;;;;;5034414;28;20036;-62
2021/11/24 07:33:31;;;;;;;28.48;16.67;;;-1.60;99.90;;;;;;5038849;28;20041;-65
2021/11/24 07:35:58;;;;;;;35.28;17.10;;;-1.50;99.90;;;;;;5036693;28;20051;-61
2021/11/24 07:38:23;;;;;;;24.58;13.93;;;-1.50;99.90;;;;;;5021210;28;20053;-63
2021/11/24 07:40:49;;;;;;;23.85;11.88;;;-1.40;99.90;;;;;;5016036;28;20471;-64
2021/11/24 07:43:15;;;;;;;22.70;12.73;;;-1.40;99.90;;;;;;5021334;28;20034;-62
2021/11/24 07:45:40;;;;;;;24.70;13.77;;;-1.20;99.90;;;;;;5030494;28;20038;-65
2021/11/24 07:48:06;;;;;;;32.83;16.27;;;-1.50;99.90;;;;;;5035662;28;20069;-65
2021/11/24 07:50:32;;;;;;;23.92;12.27;;;-0.90;99.90;;;;;;5037801;28;20360;-64
2021/11/24 07:52:58;;;;;;;21.25;11.65;;;-0.20;99.90;;;;;;5029093;28;20021;-64
2021/11/24 07:55:24;;;;;;;22.33;12.48;;;-0.90;99.90;;;;;;5015513;28;20026;-66
2021/11/24 07:57:49;;;;;;;23.13;13.27;;;1.10;99.90;;;;;;5022207;28;20029;-63
2021/11/24 08:00:15;;;;;;;21.15;12.20;;;1.10;99.90;;;;;;5037251;28;20060;-64
2021/11/24 08:02:41;;;;;;;20.58;11.27;;;3.10;99.90;;;;;;5023891;28;20049;-64
2021/11/24 08:05:08;;;;;;;18.65;10.52;;;2.90;99.90;;;;;;5032789;28;20103;-63
2021/11/24 08:07:36;;;;;;;23.02;12.27;;;4.20;99.90;;;;;;5033850;28;20446;-63
2021/11/24 08:10:04;;;;;;;19.83;12.25;;;3.90;99.90;;;;;;5015814;28;20109;-64
2021/11/24 08:12:30;;;;;;;19.92;12.05;;;4.20;99.90;;;;;;5028876;28;20026;-63
2021/11/24 08:14:56;;;;;;;19.90;12.63;;;3.90;99.90;;;;;;5033298;28;20626;-62
2021/11/24 08:17:22;;;;;;;19.52;11.75;;;3.60;99.90;;;;;;5034929;28;20128;-62
2021/11/24 08:19:47;;;;;;;17.52;12.25;;;3.00;99.90;;;;;;5040160;28;20033;-63
2021/11/24 08:22:13;;;;;;;17.92;11.85;;;2.80;99.90;;;;;;5012276;28;20025;-64
2021/11/24 08:24:39;;;;;;;19.27;12.18;;;2.50;99.90;;;;;;5023862;28;20044;-62
2021/11/24 08:27:04;;;;;;;17.73;12.23;;;1.20;99.90;;;;;;5034615;28;20042;-61
2021/11/24 08:29:30;;;;;;;21.42;11.55;;;1.30;99.90;;;;;;5031809;28;20013;-63
2021/11/24 08:31:56;;;;;;;19.08;11.38;;;0.80;99.90;;;;;;5033237;28;20104;-63
2021/11/24 08:34:22;;;;;;;17.52;11.77;;;0.60;99.90;;;;;;5032857;28;20113;-61
2021/11/24 08:36:50;;;;;;;15.80;10.90;;;0.70;99.90;;;;;;5028351;28;20384;-60
2021/11/24 08:39:16;;;;;;;17.90;11.32;;;0.50;99.90;;;;;;5032862;28;20103;-60
2021/11/24 08:41:43;;;;;;;16.67;10.63;;;0.40;99.90;;;;;;5030631;28;20083;-61
2021/11/24 08:44:09;;;;;;;24.85;12.88;;;0.80;99.90;;;;;;5033055;28;20029;-61
2021/11/24 08:46:35;;;;;;;18.27;12.35;;;0.70;99.90;;;;;;5031081;28;20037;-62
2021/11/24 08:49:01;;;;;;;16.42;12.07;;;0.80;99.90;;;;;;5027296;28;20522;-60
2021/11/24 08:51:27;;;;;;;16.05;11.90;;;1.00;99.90;;;;;;5031942;28;20021;-61
2021/11/24 08:53:53;;;;;;;25.25;13.68;;;1.10;99.90;;;;;;5016041;28;20120;-62
2021/11/24 08:56:19;;;;;;;17.90;13.07;;;1.40;99.90;;;;;;5031385;28;20028;-60
2021/11/24 08:58:45;;;;;;;17.23;11.40;;;2.10;99.90;;;;;;5030226;28;20506;-63
2021/11/24 09:01:10;;;;;;;18.33;11.55;;;1.40;99.90;;;;;;5020818;28;20037;-63
2021/11/24 09:03:36;;;;;;;19.23;12.57;;;2.10;99.90;;;;;;5019105;28;20108;-63
2021/11/24 09:06:03;;;;;;;19.58;11.23;;;1.30;99.90;;;;;;5038595;28;20059;-64
2021/11/24 09:08:30;;;;;;;15.50;11.43;;;1.90;99.90;;;;;;5047862;28;20033;-63
2021/11/24 09:10:56;;;;;;;20.58;13.30;;;2.10;99.90;;;;;;5032178;28;20076;-64
2021/11/24 09:13:21;;;;;;;21.55;15.15;;;2.20;99.90;;;;;;5019182;28;20022;-61
2021/11/24 09:15:47;;;;;;;27.40;18.13;;;3.20;99.90;;;;;;5017679;28;20049;-63
2021/11/24 09:18:14;;;;;;;21.10;14.23;;;3.40;99.90;;;;;;5031382;28;20026;-61
2021/11/24 09:20:40;;;;;;;18.92;12.20;;;3.50;99.90;;;;;;5032892;28;20099;-59
2021/11/24 09:23:07;;;;;;;20.70;14.10;;;4.20;99.90;;;;;;5030283;28;20078;-61
2021/11/24 09:25:37;;;;;;;18.55;12.50;;;5.00;99.90;;;;;;5025060;28;20021;-63
2021/11/24 09:28:13;;;;;;;22.45;13.20;;;5.40;99.90;;;;;;5028251;28;20034;-63
2021/11/24 09:30:40;;;;;;;19.95;12.95;;;6.10;99.90;;;;;;5031027;28;20115;-62
2021/11/24 09:33:06;;;;;;;18.55;12.68;;;7.00;99.90;;;;;;5014254;28;20032;-60
2021/11/24 09:35:32;;;;;;;17.77;12.30;;;7.30;99.90;;;;;;5025630;28;20102;-62
2021/11/24 09:37:58;;;;;;;17.27;12.35;;;7.80;99.90;;;;;;5037487;28;20076;-62
2021/11/24 09:40:24;;;;;;;14.90;11.25;;;7.80;99.90;;;;;;5021981;28;20029;-62
2021/11/24 09:42:56;;;;;;;17.23;11.70;;;8.50;99.90;;;;;;5035534;28;20026;-63
2021/11/24 09:45:22;;;;;;;15.13;11.80;;;8.30;99.90;;;;;;5037443;28;20072;-64
2021/11/24 09:47:48;;;;;;;20.20;11.82;;;7.90;99.90;;;;;;5029879;28;20026;-64
2021/11/24 09:50:16;;;;;;;20.00;12.48;;;8.00;99.90;;;;;;5037496;28;20030;-63
2021/11/24 09:52:47;;;;;;;19.05;11.57;;;9.30;99.90;;;;;;5037104;28;20032;-63
2021/11/24 09:55:13;;;;;;;17.13;12.95;;;10.00;99.90;;;;;;5031248;28;20391;-63
2021/11/24 09:57:38;;;;;;;18.75;12.23;;;9.70;99.90;;;;;;5034543;28;20025;-63
2021/11/24 10:00:06;;;;;;;15.70;12.70;;;9.50;99.90;;;;;;5026930;28;20512;-63
2021/11/24 10:02:32;;;;;;;16.00;12.50;;;9.00;99.90;;;;;;5034625;28;20514;-63
2021/11/24 10:04:58;;;;;;;16.95;12.80;;;9.20;99.90;;;;;;5031057;28;20033;-64
2021/11/24 10:07:24;;;;;;;20.63;13.38;;;8.80;99.90;;;;;;5041492;28;20045;-64
2021/11/24 10:09:50;;;;;;;18.90;13.75;;;8.80;99.90;;;;;;5044536;28;20025;-64
2021/11/24 10:12:16;;;;;;;21.75;13.85;;;8.50;99.90;;;;;;5038089;28;20085;-64
2021/11/24 10:14:44;;;;;;;19.90;13.63;;;8.50;99.90;;;;;;5043345;28;20125;-63
2021/11/24 10:17:16;;;;;;;21.10;14.20;;;8.90;99.90;;;;;;5040052;28;20025;-61
2021/11/24 10:20:05;;;;;;;17.33;12.55;;;8.90;99.90;;;;;;5040897;28;20407;-62
2021/11/24 10:22:32;;;;;;;16.27;13.20;;;9.50;99.90;;;;;;5019667;28;20065;-62
2021/11/24 10:25:13;;;;;;;19.15;12.82;;;10.00;99.90;;;;;;5030508;28;20064;-60
2021/11/24 10:27:44;;;;;;;18.13;13.05;;;10.60;99.90;;;;;;5016611;28;20556;-62
2021/11/24 10:30:20;;;;;;;20.75;12.50;;;10.80;99.90;;;;;;5008282;28;20033;-64
2021/11/24 10:32:46;;;;;;;16.77;13.20;;;11.20;99.50;;;;;;5018393;28;20027;-62
2021/11/24 10:35:13;;;;;;;18.55;12.95;;;12.40;97.50;;;;;;5028569;28;20053;-64
2021/11/24 10:37:39;;;;;;;18.08;13.00;;;12.40;97.80;;;;;;5029569;28;20033;-61
2021/11/24 10:40:08;;;;;;;15.98;12.70;;;12.40;96.80;;;;;;5029550;28;20087;-62
2021/11/24 10:42:39;;;;;;;19.58;14.10;;;12.70;96.70;;;;;;5029475;28;20039;-61
2021/11/24 10:45:20;;;;;;;25.77;13.93;;;12.70;96.10;;;;;;5032412;28;20104;-64
2021/11/24 10:47:56;;;;;;;17.58;13.57;;;12.90;96.20;;;;;;5031293;28;20025;-60
2021/11/24 10:50:28;;;;;;;15.15;12.90;;;12.90;95.10;;;;;;5031727;28;20033;-62
2021/11/24 10:52:54;;;;;;;15.20;12.40;;;13.10;95.50;;;;;;5029710;28;20051;-63
2021/11/24 10:55:30;;;;;;;20.10;13.52;;;13.60;94.90;;;;;;5032585;28;20627;-64
2021/11/24 10:58:02;;;;;;;15.68;12.98;;;14.70;93.80;;;;;;5028045;28;20507;-64
2021/11/24 11:00:49;;;;;;;15.52;13.02;;;14.70;93.20;;;;;;5033770;28;20061;-63
2021/11/24 11:03:14;;;;;;;16.05;12.90;;;14.90;91.80;;;;;;5027353;28;20405;-66
2021/11/24 11:05:44;;;;;;;18.55;13.60;;;14.50;92.40;;;;;;5028466;28;20476;-66
2021/11/24 11:08:14;;;;;;;15.48;13.38;;;14.30;92.20;;;;;;5037725;28;20018;-66
2021/11/24 11:10:45;;;;;;;17.08;14.30;;;13.00;93.10;;;;;;5037916;28;20029;-63
2021/11/24 11:13:12;;;;;;;15.57;13.10;;;13.20;93.80;;;;;;5039293;28;20030;-64
2021/11/24 11:15:43;;;;;;;16.70;13.40;;;13.40;93.50;;;;;;5037054;28;20080;-68
2021/11/24 11:18:25;;;;;;;18.00;14.35;;;13.80;92.60;;;;;;5033865;28;20503;-66
2021/11/24 11:21:17;;;;;;;15.50;13.60;;;13.20;92.70;;;;;;5036575;28;20581;-66
2021/11/24 11:23:48;;;;;;;15.45;13.02;;;12.70;93.30;;;;;;5031105;28;20045;-66
2021/11/24 11:26:20;;;;;;;17.45;13.63;;;12.30;94.70;;;;;;5035221;28;20082;-67
2021/11/24 11:28:48;;;;;;;18.35;13.55;;;12.50;94.70;;;;;;5037329;28;20022;-67
2021/11/24 11:31:17;;;;;;;16.98;13.85;;;13.40;93.40;;;;;;5037619;28;20108;-64
2021/11/24 11:33:52;;;;;;;16.08;13.43;;;13.50;91.70;;;;;;5038271;28;20026;-65
2021/11/24 11:36:19;;;;;;;16.45;14.20;;;13.60;92.40;;;;;;5034413;28;20034;-64
2021/11/24 11:38:48;;;;;;;15.88;13.55;;;13.30;92.30;;;;;;5039213;28;20105;-68
2021/11/24 11:41:17;;;;;;;16.45;13.50;;;12.90;92.60;;;;;;5030781;28;20199;-68
2021/11/24 11:43:44;;;;;;;15.27;13.30;;;13.00;92.50;;;;;;5038541;28;20033;-65
2021/11/24 11:46:16;;;;;;;15.77;13.15;;;13.20;92.70;;;;;;5035531;28;20112;-66
2021/11/24 11:48:43;;;;;;;16.88;13.48;;;13.40;92.10;;;;;;5037563;28;20036;-65
2021/11/24 11:51:10;;;;;;;16.30;13.80;;;13.90;91.40;;;;;;5038638;28;20053;-66
2021/11/24 11:53:43;;;;;;;16.10;13.73;;;14.20;91.10;;;;;;5039582;28;20030;-66
2021/11/24 11:56:17;;;;;;;17.88;14.80;;;14.40;91.10;;;;;;5021147;28;20028;-64
2021/11/24 11:58:54;;;;;;;13.88;12.40;;;14.70;89.20;;;;;;5031243;28;20069;-64
2021/11/24 12:01:32;;;;;;;17.20;13.85;;;14.40;89.40;;;;;;5035482;28;20026;-64
2021/11/24 12:04:33;;;;;;;16.08;13.35;;;13.90;90.20;;;;;;5050367;28;20085;-64
2021/11/24 12:06:59;;;;;;;21.30;15.13;;;12.90;91.70;;;;;;4996267;28;20559;-64
2021/11/24 12:09:30;;;;;;;18.73;15.20;;;11.20;94.10;;;;;;5028423;28;20060;-64
2021/11/24 12:11:59;;;;;;;18.38;14.30;;;11.10;94.50;;;;;;5041039;28;20092;-63
2021/11/24 12:14:53;;;;;;;18.15;14.05;;;10.70;94.70;;;;;;5036896;28;20048;-63
2021/11/24 12:20:00;;;;;;;20.98;14.18;;;10.20;96.10;;;;;;5041415;28;20087;-64
2021/11/24 12:25:27;;;;;;;17.58;13.75;;;11.80;94.40;;;;;;5021737;28;20040;-65
2021/11/24 12:27:53;;;;;;;20.10;14.35;;;12.00;93.40;;;;;;5034933;28;20033;-64
2021/11/24 12:30:50;;;;;;;15.98;13.02;;;13.00;92.50;;;;;;5039805;28;20024;-68
2021/11/24 12:33:19;;;;;;;17.95;13.10;;;13.40;92.10;;;;;;5022360;28;20025;-69
2021/11/24 12:36:15;;;;;;;22.60;14.25;;;13.60;91.30;;;;;;5020814;28;20029;-68
2021/11/24 12:38:50;;;;;;;19.08;14.05;;;13.50;91.20;;;;;;5031166;28;20025;-67
2021/11/24 12:41:27;;;;;;;19.60;14.23;;;13.00;91.80;;;;;;5036944;28;20115;-67